createdAt,value
2018-07-06T00:02:30.335Z,4.50
2018-07-06T00:05:09.841Z,4.07
2018-07-06T00:07:43.483Z,4.67
2018-07-06T00:10:23.088Z,4.47
2018-07-06T00:13:02.687Z,4.50
2018-07-06T00:15:36.236Z,3.87
2018-07-06T00:18:15.819Z,4.23
2018-07-06T00:20:55.348Z,4.30
2018-07-06T00:23:34.935Z,3.83
2018-07-06T00:26:14.590Z,3.90
2018-07-06T00:28:54.154Z,3.90
2018-07-06T00:31:27.618Z,3.33
2018-07-06T00:34:07.460Z,3.60
2018-07-06T00:36:47.185Z,4.53
2018-07-06T00:39:26.565Z,3.20
2018-07-06T00:42:06.942Z,3.80
2018-07-06T00:44:46.422Z,3.47
2018-07-06T00:47:25.934Z,3.27
2018-07-06T00:50:05.459Z,2.80
2018-07-06T00:52:44.855Z,3.03
2018-07-06T00:55:24.528Z,2.90
2018-07-06T00:58:04.163Z,3.00
2018-07-06T01:00:43.690Z,3.03
2018-07-06T01:03:23.204Z,2.63
2018-07-06T01:06:02.663Z,2.83
2018-07-06T01:08:42.036Z,3.00
2018-07-06T01:11:21.558Z,3.20
2018-07-06T01:14:01.041Z,3.20
2018-07-06T01:16:40.557Z,3.30
2018-07-06T01:19:20.243Z,3.40
2018-07-06T01:21:59.795Z,3.17
2018-07-06T01:24:39.339Z,3.00
2018-07-06T01:27:18.809Z,3.50
2018-07-06T01:29:58.371Z,3.23
2018-07-06T01:32:37.853Z,3.50
2018-07-06T01:35:17.456Z,3.10
2018-07-06T01:37:57.044Z,3.60
2018-07-06T01:40:36.486Z,3.53
2018-07-06T01:43:16.019Z,3.40
2018-07-06T01:45:55.671Z,3.33
2018-07-06T01:48:35.091Z,2.90
2018-07-06T01:51:14.810Z,2.85
2018-07-06T01:53:54.427Z,3.20
2018-07-06T01:56:33.921Z,3.00
2018-07-06T01:59:13.418Z,2.67
2018-07-06T02:01:52.929Z,3.23
2018-07-06T02:04:32.503Z,2.83
2018-07-06T02:07:05.858Z,2.70
2018-07-06T02:09:45.440Z,2.43
2018-07-06T02:12:25.170Z,2.53
2018-07-06T02:15:04.775Z,2.77
2018-07-06T02:17:44.344Z,2.63
2018-07-06T02:20:23.906Z,2.47
2018-07-06T02:23:03.457Z,2.87
2018-07-06T02:25:42.867Z,2.30
2018-07-06T02:28:22.382Z,2.80
2018-07-06T02:31:02.135Z,2.60
2018-07-06T02:33:41.893Z,2.20
2018-07-06T02:36:21.741Z,2.50
2018-07-06T02:39:01.436Z,2.13
2018-07-06T02:41:40.863Z,2.13
2018-07-06T02:44:20.300Z,2.70
2018-07-06T02:46:59.747Z,2.70
2018-07-06T02:49:33.294Z,2.30
2018-07-06T02:52:13.017Z,2.50
2018-07-06T02:54:46.487Z,2.87
2018-07-06T02:57:26.047Z,2.40
2018-07-06T03:00:05.507Z,2.50
2018-07-06T03:02:44.913Z,2.57
2018-07-06T03:05:24.355Z,2.60
2018-07-06T03:08:03.839Z,2.53
2018-07-06T03:10:43.346Z,3.07
2018-07-06T03:13:16.975Z,2.33
2018-07-06T03:15:56.391Z,2.33
2018-07-06T03:18:35.817Z,2.63
2018-07-06T03:21:15.642Z,2.30
2018-07-06T03:23:55.407Z,2.33
2018-07-06T03:26:35.595Z,2.30
2018-07-06T03:29:15.074Z,2.40
2018-07-06T03:31:54.638Z,2.50
2018-07-06T03:34:34.233Z,2.40
2018-07-06T03:37:13.753Z,2.70
2018-07-06T03:39:53.214Z,2.47
2018-07-06T03:42:32.771Z,2.10
2018-07-06T03:45:06.398Z,2.70
2018-07-06T03:47:46.047Z,2.20
2018-07-06T03:50:19.683Z,2.20
2018-07-06T03:52:59.172Z,2.47
2018-07-06T03:55:38.699Z,2.23
2018-07-06T03:58:18.307Z,2.30
2018-07-06T04:00:58.061Z,2.27
2018-07-06T04:03:37.639Z,2.43
2018-07-06T04:06:11.215Z,2.10
2018-07-06T04:08:50.799Z,2.00
2018-07-06T04:11:24.314Z,2.13
2018-07-06T04:13:58.434Z,1.70
2018-07-06T04:16:37.835Z,2.03
2018-07-06T04:19:17.403Z,2.20
2018-07-06T04:21:57.071Z,2.00
2018-07-06T04:24:36.670Z,2.10
2018-07-06T04:27:16.128Z,2.27
2018-07-06T04:29:49.555Z,2.40
2018-07-06T04:32:29.436Z,2.20
2018-07-06T04:35:09.138Z,2.13
2018-07-06T04:37:49.039Z,2.03
2018-07-06T04:40:28.574Z,2.20
2018-07-06T04:43:08.263Z,2.30
2018-07-06T04:45:48.360Z,2.53
2018-07-06T04:48:27.912Z,2.37
2018-07-06T04:51:07.451Z,2.33
2018-07-06T04:53:46.899Z,2.60
2018-07-06T04:56:26.414Z,2.47
2018-07-06T04:58:59.835Z,2.27
2018-07-06T05:01:39.673Z,2.53
2018-07-06T05:04:19.300Z,2.23
2018-07-06T05:06:58.898Z,2.40
2018-07-06T05:09:38.507Z,3.10
2018-07-06T05:12:18.001Z,2.60
2018-07-06T05:14:51.683Z,2.60
2018-07-06T05:17:31.099Z,2.30
2018-07-06T05:20:10.645Z,2.50
2018-07-06T05:22:50.419Z,2.50
2018-07-06T05:25:30.252Z,2.43
2018-07-06T05:28:03.709Z,2.30
2018-07-06T05:30:44.083Z,2.73
2018-07-06T05:33:23.527Z,2.40
2018-07-06T05:36:03.323Z,2.53
2018-07-06T05:38:42.919Z,3.00
2018-07-06T05:41:22.563Z,3.57
2018-07-06T05:43:56.982Z,3.50
2018-07-06T05:46:30.567Z,3.37
2018-07-06T05:49:10.235Z,4.30
2018-07-06T05:51:49.912Z,3.80
2018-07-06T05:54:29.744Z,4.20
2018-07-06T05:57:09.212Z,3.97
2018-07-06T05:59:48.700Z,4.20
2018-07-06T06:02:22.182Z,4.20
2018-07-06T06:05:01.842Z,4.07
2018-07-06T06:07:29.404Z,4.40
2018-07-06T06:09:57.391Z,4.20
2018-07-06T06:12:25.459Z,4.90
2018-07-06T06:14:53.504Z,4.13
2018-07-06T06:17:21.692Z,4.17
2018-07-06T06:19:49.666Z,3.97
2018-07-06T06:22:17.856Z,3.70
2018-07-06T06:24:46.560Z,4.10
2018-07-06T06:27:21.271Z,4.62
2018-07-06T06:29:50.358Z,4.30
2018-07-06T06:32:18.360Z,3.70
2018-07-06T06:34:46.384Z,3.93
2018-07-06T06:37:14.399Z,3.87
2018-07-06T06:39:42.366Z,3.73
2018-07-06T06:42:10.411Z,3.97
2018-07-06T06:44:38.256Z,4.17
2018-07-06T06:47:06.272Z,4.60
2018-07-06T06:49:34.304Z,4.30
2018-07-06T06:52:02.435Z,4.57
2018-07-06T06:54:30.291Z,4.17
2018-07-06T06:56:58.359Z,4.13
2018-07-06T06:59:26.343Z,4.13
2018-07-06T07:01:54.425Z,4.37
2018-07-06T07:04:22.668Z,3.83
2018-07-06T07:06:50.667Z,3.70
2018-07-06T07:09:18.618Z,4.30
2018-07-06T07:11:46.634Z,4.33
2018-07-06T07:14:14.789Z,4.20
2018-07-06T07:16:42.686Z,4.50
2018-07-06T07:19:10.636Z,3.60
2018-07-06T07:21:38.718Z,4.00
2018-07-06T07:24:06.722Z,4.47
2018-07-06T07:26:34.753Z,4.70
2018-07-06T07:29:02.802Z,4.90
2018-07-06T07:31:30.763Z,5.20
2018-07-06T07:33:58.583Z,5.10
2018-07-06T07:36:26.579Z,4.50
2018-07-06T07:38:54.734Z,5.43
2018-07-06T07:41:22.712Z,4.60
2018-07-06T07:43:50.670Z,5.10
2018-07-06T07:46:18.671Z,4.60
2018-07-06T07:48:46.698Z,5.30
2018-07-06T07:52:04.642Z,5.20
2018-07-06T07:54:39.295Z,5.60
2018-07-06T07:57:07.707Z,6.33
2018-07-06T07:59:35.776Z,4.70
2018-07-06T08:02:04.228Z,4.80
2018-07-06T08:04:32.223Z,4.70
2018-07-06T08:07:00.199Z,4.43
2018-07-06T08:09:28.465Z,4.90
2018-07-06T08:11:57.855Z,4.57
2018-07-06T08:14:26.419Z,4.63
2018-07-06T08:16:54.359Z,4.57
2018-07-06T08:19:22.620Z,5.23
2018-07-06T08:21:50.935Z,4.57
2018-07-06T08:24:19.645Z,4.13
2018-07-06T08:26:47.792Z,4.70
2018-07-06T08:29:15.771Z,5.10
2018-07-06T08:31:44.061Z,5.63
2018-07-06T08:34:23.709Z,5.40
2018-07-06T08:37:29.778Z,4.77
2018-07-06T08:39:58.548Z,5.40
2018-07-06T08:42:27.800Z,5.30
2018-07-06T08:44:56.762Z,5.00
2018-07-06T08:47:24.705Z,4.60
2018-07-06T08:49:53.290Z,4.43
2018-07-06T08:52:21.308Z,5.03
2018-07-06T08:54:50.009Z,5.20
2018-07-06T08:57:18.247Z,4.60
2018-07-06T08:59:46.359Z,5.20
2018-07-06T09:02:14.388Z,4.63
2018-07-06T09:04:42.362Z,4.50
2018-07-06T09:07:10.267Z,5.63
2018-07-06T09:09:38.372Z,4.80
2018-07-06T09:12:06.682Z,5.47
2018-07-06T09:14:34.724Z,5.97
2018-07-06T09:17:02.736Z,5.43
2018-07-06T09:19:30.768Z,5.67
2018-07-06T09:21:58.845Z,5.20
2018-07-06T09:24:26.902Z,4.93
2018-07-06T09:26:54.863Z,4.17
2018-07-06T09:29:22.910Z,4.40
2018-07-06T09:31:51.018Z,5.37
2018-07-06T09:34:19.090Z,4.67
2018-07-06T09:36:47.094Z,4.87
2018-07-06T09:39:15.080Z,4.97
2018-07-06T09:41:43.499Z,5.70
2018-07-06T09:44:11.207Z,4.60
2018-07-06T09:46:39.035Z,5.00
2018-07-06T09:49:08.065Z,5.67
2018-07-06T09:51:36.120Z,5.07
2018-07-06T09:54:04.176Z,4.80
2018-07-06T09:56:32.117Z,4.40
2018-07-06T09:59:00.217Z,5.00
2018-07-06T10:01:28.032Z,4.90
2018-07-06T10:03:56.595Z,5.27
2018-07-06T10:06:24.832Z,5.45
2018-07-06T10:08:53.656Z,5.33
2018-07-06T10:11:22.036Z,6.15
2018-07-06T10:13:50.271Z,7.13
2018-07-06T10:16:18.463Z,6.23
2018-07-06T10:18:46.545Z,6.60
2018-07-06T10:21:14.572Z,7.10
2018-07-06T10:23:42.556Z,6.97
2018-07-06T10:26:10.660Z,6.20
2018-07-06T10:30:59.919Z,7.57
2018-07-06T10:33:27.951Z,6.43
2018-07-06T10:35:56.082Z,7.47
2018-07-06T10:38:24.135Z,6.97
2018-07-06T10:40:52.423Z,7.00
2018-07-06T10:43:20.407Z,6.43
2018-07-06T10:45:48.284Z,6.80
2018-07-06T10:48:16.260Z,7.80
2018-07-06T10:50:44.368Z,7.43
2018-07-06T10:53:12.331Z,7.70
2018-07-06T10:55:40.371Z,9.87
2018-07-06T10:58:08.336Z,10.50
2018-07-06T11:00:36.452Z,10.53
2018-07-06T11:03:04.440Z,10.20
2018-07-06T11:05:32.519Z,10.83
2018-07-06T11:08:00.636Z,10.93
2018-07-06T11:10:28.684Z,10.73
2018-07-06T11:12:56.639Z,11.10
2018-07-06T11:15:24.775Z,10.73
2018-07-06T11:17:52.880Z,11.00
2018-07-06T11:20:21.384Z,12.20
2018-07-06T11:22:50.355Z,10.67
2018-07-06T11:25:19.092Z,10.27
2018-07-06T11:27:47.027Z,9.53
2018-07-06T11:30:15.117Z,9.33
2018-07-06T11:32:43.152Z,10.13
2018-07-06T11:35:11.576Z,10.40
2018-07-06T11:37:39.631Z,10.17
2018-07-06T11:40:07.650Z,10.00
2018-07-06T11:42:35.647Z,10.37
2018-07-06T11:45:03.722Z,10.73
2018-07-06T11:47:31.639Z,9.10
2018-07-06T11:50:00.214Z,9.27
2018-07-06T11:52:28.240Z,9.20
2018-07-06T11:54:57.256Z,8.67
2018-07-06T11:57:25.408Z,7.97
2018-07-06T11:59:53.234Z,7.30
2018-07-06T12:02:21.315Z,7.73
2018-07-06T12:04:49.398Z,7.17
2018-07-06T12:07:17.404Z,7.60
2018-07-06T12:09:46.226Z,7.43
2018-07-06T12:12:14.621Z,7.37
2018-07-06T12:14:42.899Z,8.10
2018-07-06T12:17:10.982Z,7.70
2018-07-06T12:19:39.319Z,8.20
2018-07-06T12:22:07.342Z,8.00
2018-07-06T12:24:35.399Z,8.10
2018-07-06T12:27:03.964Z,7.57
2018-07-06T12:29:32.322Z,6.43
2018-07-06T12:32:00.530Z,5.97
2018-07-06T12:34:28.674Z,6.60
2018-07-06T12:36:57.066Z,7.63
2018-07-06T12:39:26.880Z,6.47
2018-07-06T12:41:55.111Z,6.80
2018-07-06T12:44:23.369Z,7.08
2018-07-06T12:46:51.376Z,7.20
2018-07-06T12:49:19.585Z,6.00
2018-07-06T12:51:47.619Z,6.63
2018-07-06T12:54:15.616Z,5.83
2018-07-06T12:56:43.647Z,6.40
2018-07-06T12:59:11.565Z,6.00
2018-07-06T13:01:39.547Z,5.47
2018-07-06T13:04:07.619Z,4.83
2018-07-06T13:06:35.893Z,5.20
2018-07-06T13:09:04.238Z,5.10
2018-07-06T13:11:32.286Z,5.47
2018-07-06T13:14:00.609Z,4.47
2018-07-06T13:16:29.138Z,4.93
2018-07-06T13:18:58.204Z,4.70
2018-07-06T13:21:26.665Z,3.98
2018-07-06T13:23:54.574Z,3.90
2018-07-06T13:26:22.612Z,3.67
2018-07-06T13:28:50.513Z,3.90
2018-07-06T13:31:18.499Z,3.90
2018-07-06T13:33:46.559Z,3.60
2018-07-06T13:36:14.979Z,3.63
2018-07-06T13:38:43.053Z,3.40
2018-07-06T13:41:11.056Z,3.30
2018-07-06T13:43:39.030Z,3.40
2018-07-06T13:46:07.176Z,3.53
2018-07-06T13:48:35.230Z,3.70
2018-07-06T13:51:03.367Z,4.40
2018-07-06T13:53:31.222Z,3.63
2018-07-06T13:55:59.218Z,3.83
2018-07-06T13:58:27.030Z,3.67
2018-07-06T14:00:55.088Z,3.00
2018-07-06T14:03:22.903Z,3.13
2018-07-06T14:05:51.030Z,3.93
2018-07-06T14:08:19.096Z,3.23
2018-07-06T14:10:47.043Z,3.10
2018-07-06T14:13:16.416Z,2.80
2018-07-06T14:15:45.204Z,2.90
2018-07-06T14:18:13.329Z,3.97
2018-07-06T14:20:41.638Z,2.83
2018-07-06T14:23:09.847Z,3.17
2018-07-06T14:25:37.890Z,3.20
2018-07-06T14:28:06.265Z,2.63
2018-07-06T14:30:34.155Z,2.80
2018-07-06T14:33:02.138Z,3.40
2018-07-06T14:35:32.922Z,2.87
2018-07-06T14:38:00.969Z,2.60
2018-07-06T14:40:29.019Z,2.70
2018-07-06T14:43:01.457Z,2.40
2018-07-06T14:45:29.524Z,3.60
2018-07-06T14:47:57.577Z,2.77
2018-07-06T14:50:25.914Z,2.70
2018-07-06T14:52:54.279Z,3.57
2018-07-06T14:55:22.651Z,2.70
2018-07-06T14:57:50.847Z,2.80
2018-07-06T15:00:18.943Z,3.60
2018-07-06T15:02:47.005Z,3.30
2018-07-06T15:05:15.464Z,3.77
2018-07-06T15:07:43.693Z,3.50
2018-07-06T15:10:11.691Z,2.90
2018-07-06T15:12:39.693Z,2.47
2018-07-06T15:15:07.706Z,2.83
2018-07-06T15:17:35.794Z,2.53
2018-07-06T15:20:03.614Z,3.37
2018-07-06T15:22:31.582Z,2.83
2018-07-06T15:24:59.638Z,3.20
2018-07-06T15:27:27.864Z,3.20
2018-07-06T15:29:55.988Z,2.93
2018-07-06T15:32:23.947Z,2.90
2018-07-06T15:34:51.916Z,2.73
2018-07-06T15:37:19.963Z,2.90
2018-07-06T15:39:47.995Z,2.90
2018-07-06T15:42:15.981Z,3.50
2018-07-06T15:44:45.752Z,3.10
2018-07-06T15:47:14.465Z,3.13
2018-07-06T15:49:42.575Z,2.80
2018-07-06T15:52:10.611Z,2.60
2018-07-06T15:54:38.706Z,3.30
2018-07-06T15:57:06.874Z,2.43
2018-07-06T15:59:34.883Z,2.90
2018-07-06T16:02:03.143Z,3.03
2018-07-06T16:04:31.662Z,3.03
2018-07-06T16:06:59.511Z,5.90
2018-07-06T16:09:27.587Z,4.70
2018-07-06T16:11:55.768Z,2.70
2018-07-06T16:14:23.600Z,3.40
2018-07-06T16:16:51.968Z,5.50
2018-07-06T16:19:20.739Z,5.07
2018-07-06T16:21:48.555Z,3.30
2018-07-06T16:24:16.550Z,3.17
2018-07-06T16:26:44.659Z,3.73
2018-07-06T16:29:12.741Z,4.03
2018-07-06T16:31:40.950Z,5.43
2018-07-06T16:34:09.019Z,5.60
2018-07-06T16:36:37.132Z,5.50
2018-07-06T16:39:05.473Z,3.50
2018-07-06T16:41:33.519Z,3.77
2018-07-06T16:44:01.687Z,4.33
2018-07-06T16:46:30.765Z,3.97
2018-07-06T16:48:58.732Z,4.43
2018-07-06T16:51:26.928Z,4.03
2018-07-06T16:53:55.019Z,3.70
2018-07-06T16:56:23.092Z,3.63
2018-07-06T16:58:51.249Z,5.63
2018-07-06T17:01:19.947Z,4.83
2018-07-06T17:03:48.071Z,3.10
2018-07-06T17:06:16.039Z,3.73
2018-07-06T17:08:44.285Z,3.57
2018-07-06T17:11:12.426Z,3.40
2018-07-06T17:13:40.473Z,3.27
2018-07-06T17:16:08.459Z,4.03
2018-07-06T17:18:36.474Z,8.57
2018-07-06T17:21:05.707Z,6.40
2018-07-06T17:23:33.758Z,4.10
2018-07-06T17:26:03.040Z,4.73
2018-07-06T17:28:31.151Z,5.20
2018-07-06T17:30:59.193Z,5.50
2018-07-06T17:33:27.716Z,7.40
2018-07-06T17:35:55.743Z,5.60
2018-07-06T17:38:23.832Z,8.13
2018-07-06T17:40:51.857Z,4.53
2018-07-06T17:43:20.164Z,6.77
2018-07-06T17:45:48.846Z,9.00
2018-07-06T17:48:17.368Z,9.03
2018-07-06T17:50:45.495Z,25.17
2018-07-06T17:53:13.355Z,5.10
2018-07-06T17:55:41.400Z,6.53
2018-07-06T17:58:09.355Z,5.20
2018-07-06T18:00:37.405Z,4.33
2018-07-06T18:03:05.405Z,5.90
2018-07-06T18:05:33.391Z,8.17
2018-07-06T18:08:01.360Z,6.50
2018-07-06T18:10:29.919Z,3.50
2018-07-06T18:12:57.992Z,4.07
2018-07-06T18:15:25.995Z,6.43
2018-07-06T18:17:54.020Z,3.43
2018-07-06T18:20:22.276Z,4.10
2018-07-06T18:22:50.999Z,5.00
2018-07-06T18:25:19.811Z,6.07
2018-07-06T18:27:48.329Z,3.43
2018-07-06T18:30:16.634Z,3.13
2018-07-06T18:32:44.904Z,2.60
2018-07-06T18:35:13.645Z,3.67
2018-07-06T18:37:42.061Z,4.40
2018-07-06T18:40:10.115Z,4.33
2018-07-06T18:42:38.155Z,4.73
2018-07-06T18:45:06.176Z,4.53
2018-07-06T18:47:34.232Z,6.07
2018-07-06T18:50:02.553Z,7.53
2018-07-06T18:52:31.023Z,4.87
2018-07-06T18:54:59.039Z,6.07
2018-07-06T18:57:27.193Z,7.23
2018-07-06T18:59:55.873Z,5.93
2018-07-06T19:02:24.080Z,4.27
2018-07-06T19:04:52.331Z,5.53
2018-07-06T19:07:20.656Z,5.40
2018-07-06T19:09:48.640Z,4.87
2018-07-06T19:12:16.862Z,2.70
2018-07-06T19:14:44.987Z,3.13
2018-07-06T19:17:13.713Z,3.23
2018-07-06T19:19:41.876Z,2.67
2018-07-06T19:22:10.311Z,2.60
2018-07-06T19:24:39.801Z,2.80
2018-07-06T19:27:07.926Z,4.00
2018-07-06T19:29:36.209Z,2.70
2018-07-06T19:32:04.193Z,2.73
2018-07-06T19:34:32.547Z,3.53
2018-07-06T19:37:00.416Z,3.13
2018-07-06T19:39:28.852Z,3.40
2018-07-06T19:41:56.945Z,3.00
2018-07-06T19:44:26.065Z,3.20
2018-07-06T19:46:54.048Z,3.60
2018-07-06T19:49:22.032Z,3.30
2018-07-06T19:51:50.111Z,2.60
2018-07-06T19:54:18.105Z,2.97
2018-07-06T19:56:46.204Z,3.40
2018-07-06T19:59:14.275Z,3.63
2018-07-06T20:01:42.704Z,2.20
2018-07-06T20:04:10.569Z,2.40
2018-07-06T20:06:38.831Z,3.17
2018-07-06T20:09:07.261Z,2.77
2018-07-06T20:11:35.570Z,3.10
2018-07-06T20:14:04.110Z,2.87
2018-07-06T20:16:32.288Z,3.00
2018-07-06T20:19:00.744Z,4.50
2018-07-06T20:21:28.914Z,4.30
2018-07-06T20:23:57.000Z,3.40
2018-07-06T20:26:25.736Z,1.80
2018-07-06T20:28:54.220Z,3.30
2018-07-06T20:34:13.306Z,3.20
2018-07-06T20:36:41.556Z,3.30
2018-07-06T20:39:09.817Z,6.37
2018-07-06T20:41:38.134Z,2.60
2018-07-06T20:44:06.228Z,2.73
2018-07-06T20:46:34.289Z,3.33
2018-07-06T20:49:03.846Z,3.03
2018-07-06T20:51:32.688Z,3.17
2018-07-06T20:54:00.834Z,3.43
2018-07-06T20:56:28.839Z,3.10
2018-07-06T20:58:57.035Z,3.50
2018-07-06T21:01:25.178Z,3.83
2018-07-06T21:03:54.199Z,6.17
2018-07-06T21:06:22.304Z,3.50
2018-07-06T21:08:50.550Z,3.45
2018-07-06T21:11:19.573Z,4.37
2018-07-06T21:13:47.644Z,3.30
2018-07-06T21:16:15.745Z,2.60
2018-07-06T21:18:43.953Z,2.30
2018-07-06T21:21:12.168Z,2.62
2018-07-06T21:23:40.056Z,2.20
2018-07-06T21:26:08.117Z,2.40
2018-07-06T21:28:36.337Z,2.53
2018-07-06T21:31:05.979Z,1.80
2018-07-06T21:33:34.110Z,2.70
2018-07-06T21:36:02.146Z,2.83
2018-07-06T21:38:30.411Z,2.80
2018-07-06T21:40:58.994Z,2.60
2018-07-06T21:43:27.150Z,2.70
2018-07-06T21:45:55.288Z,3.07
2018-07-06T21:48:23.436Z,3.03
2018-07-06T21:50:51.515Z,2.60
2018-07-06T21:53:19.661Z,2.67
2018-07-06T21:55:47.684Z,2.53
2018-07-06T21:58:15.748Z,2.87
2018-07-06T22:00:44.197Z,2.23
2018-07-06T22:03:12.898Z,3.20
2018-07-06T22:05:41.869Z,2.80
2018-07-06T22:08:09.844Z,2.30
2018-07-06T22:10:38.428Z,2.23
2018-07-06T22:13:07.019Z,3.03
2018-07-06T22:15:41.472Z,3.13
2018-07-06T22:18:09.515Z,2.57
2018-07-06T22:20:38.046Z,2.47
2018-07-06T22:23:06.241Z,2.80
2018-07-06T22:25:35.037Z,3.20
2018-07-06T22:28:03.156Z,2.37
2018-07-06T22:30:30.955Z,2.30
2018-07-06T22:32:58.977Z,2.60
2018-07-06T22:35:27.060Z,2.20
2018-07-06T22:37:55.271Z,2.90
2018-07-06T22:40:23.579Z,3.57
2018-07-06T22:42:51.965Z,2.27
2018-07-06T22:45:19.992Z,2.60
2018-07-06T22:47:48.065Z,2.90
2018-07-06T22:50:16.076Z,2.07
2018-07-06T22:52:44.068Z,2.47
2018-07-06T22:55:12.133Z,3.40
2018-07-06T22:57:40.140Z,2.57
2018-07-06T23:00:08.228Z,2.90
2018-07-06T23:02:36.364Z,2.37
2018-07-06T23:05:10.612Z,3.50
2018-07-06T23:07:39.405Z,2.73
2018-07-06T23:10:07.605Z,2.60
2018-07-06T23:12:36.037Z,2.53
2018-07-06T23:15:04.249Z,2.50
2018-07-06T23:17:32.629Z,2.97
2018-07-06T23:20:00.868Z,3.10
2018-07-06T23:22:36.035Z,2.70
2018-07-06T23:25:03.908Z,2.13
2018-07-06T23:27:31.900Z,3.00
2018-07-06T23:29:59.934Z,2.80
2018-07-06T23:32:27.917Z,2.30
2018-07-06T23:34:55.942Z,2.50
2018-07-06T23:37:23.886Z,3.07
2018-07-06T23:39:52.040Z,2.90
2018-07-06T23:42:20.001Z,3.40
2018-07-06T23:44:48.089Z,2.67
2018-07-06T23:47:16.154Z,2.87
2018-07-06T23:49:44.134Z,2.37
2018-07-06T23:52:12.094Z,2.70
2018-07-06T23:54:40.328Z,2.87
2018-07-06T23:57:08.432Z,2.57
2018-07-06T23:59:36.449Z,2.70
